Time;durP1;ratioP1;P1;durP2;ratioP2;P2;SDS_P1;SDS_P2;PMS_P1;PMS_P2;Temp;Humidity;BMP_temperature;BMP_pressure;BME280_temperature;BME280_humidity;BME280_pressure;Samples;Min_cycle;Max_cycle;Signal;HPM_P1;HPM_P2
2023/11/10 00:01:49;;;;;;;6.10;2.92;;;;;;;;;;5041891;28;20059;-68
2023/11/10 00:04:15;;;;;;;6.55;3.10;;;;;;;;;;5012200;28;20047;-69
2023/11/10 00:06:43;;;;;;;7.65;3.10;;;;;;;;;;5031104;28;20029;-68
2023/11/10 00:09:09;;;;;;;4.80;3.10;;;;;;;;;;5030058;28;20114;-68
2023/11/10 00:11:35;;;;;;;5.82;3.03;;;;;;;;;;5034170;28;20116;-67
2023/11/10 00:14:01;;;;;;;6.38;3.35;;;;;;;;;;5040089;28;20032;-68
2023/11/10 00:16:27;;;;;;;8.00;2.97;;;;;;;;;;5013913;28;20571;-67
2023/11/10 00:18:56;;;;;;;7.13;2.88;;;;;;;;;;5014535;28;20058;-69
2023/11/10 00:21:23;;;;;;;5.80;3.00;;;;;;;;;;5037706;28;20476;-67
2023/11/10 00:23:50;;;;;;;12.98;2.80;;;;;;;;;;5020944;28;20391;-68
2023/11/10 00:26:22;;;;;;;12.57;3.33;;;;;;;;;;5041446;28;20492;-67
2023/11/10 00:28:48;;;;;;;5.68;2.88;;;;;;;;;;5018351;28;20487;-68
2023/11/10 00:31:14;;;;;;;3.78;2.55;;;;;;;;;;5037021;28;20382;-68
2023/11/10 00:33:41;;;;;;;6.38;2.92;;;;;;;;;;5042543;28;20032;-67
2023/11/10 00:36:07;;;;;;;5.25;2.70;;;;;;;;;;5022191;28;20029;-67
2023/11/10 00:38:33;;;;;;;10.50;2.92;;;;;;;;;;5039247;28;20059;-67
2023/11/10 00:40:59;;;;;;;4.18;2.90;;;;;;;;;;5038645;28;20033;-69
2023/11/10 00:43:26;;;;;;;4.63;2.78;;;;;;;;;;5039593;28;20033;-68
2023/11/10 00:45:54;;;;;;;7.55;3.28;;;;;;;;;;5035600;28;20033;-67
2023/11/10 00:48:20;;;;;;;8.38;3.05;;;;;;;;;;5037105;28;20060;-67
2023/11/10 00:50:46;;;;;;;7.75;3.53;;;;;;;;;;5039756;28;20470;-68
2023/11/10 00:53:13;;;;;;;7.22;3.45;;;;;;;;;;5041622;28;20036;-68
2023/11/10 00:55:39;;;;;;;9.38;3.58;;;;;;;;;;5035216;28;20022;-68
2023/11/10 00:58:05;;;;;;;7.85;4.00;;;;;;;;;;5043594;28;20108;-68
2023/11/10 01:00:31;;;;;;;6.75;3.28;;;;;;;;;;5043595;28;20094;-68
2023/11/10 01:02:58;;;;;;;5.70;2.60;;;;;;;;;;5032200;28;20044;-68
2023/11/10 01:05:24;;;;;;;11.40;3.38;;;;;;;;;;5035071;28;20036;-68
2023/11/10 01:07:51;;;;;;;11.07;3.17;;;;;;;;;;5039880;28;20032;-68
2023/11/10 01:10:17;;;;;;;5.88;2.88;;;;;;;;;;5038188;28;20029;-68
2023/11/10 01:12:43;;;;;;;8.77;2.90;;;;;;;;;;5039252;28;20029;-68
2023/11/10 01:15:11;;;;;;;8.95;2.70;;;;;;;;;;5037296;28;20457;-68
2023/11/10 01:17:39;;;;;;;5.68;3.35;;;;;;;;;;5032445;28;20054;-69
2023/11/10 01:20:10;;;;;;;11.25;3.67;;;;;;;;;;5038201;28;20113;-69
2023/11/10 01:22:36;;;;;;;5.68;3.00;;;;;;;;;;5040459;28;20346;-67
2023/11/10 01:25:07;;;;;;;8.55;2.97;;;;;;;;;;5038694;28;20407;-64
2023/11/10 01:27:33;;;;;;;9.95;2.95;;;;;;;;;;5041398;28;20034;-67
2023/11/10 01:30:00;;;;;;;4.75;2.60;;;;;;;;;;5038747;28;20024;-67
2023/11/10 01:32:26;;;;;;;8.25;2.58;;;;;;;;;;5038729;28;20123;-69
2023/11/10 01:34:54;;;;;;;8.80;2.83;;;;;;;;;;5037827;28;20469;-67
2023/11/10 01:37:21;;;;;;;4.60;2.63;;;;;;;;;;5041557;28;20410;-67
2023/11/10 01:39:48;;;;;;;5.70;2.55;;;;;;;;;;5037353;28;20030;-67
2023/11/10 01:42:15;;;;;;;6.65;2.50;;;;;;;;;;5042896;28;20757;-69
2023/11/10 01:44:42;;;;;;;5.20;2.78;;;;;;;;;;5017274;28;20051;-69
2023/11/10 01:47:08;;;;;;;8.32;2.20;;;;;;;;;;5036512;28;20423;-68
2023/11/10 01:49:34;;;;;;;3.35;2.25;;;;;;;;;;5037562;28;20029;-68
2023/11/10 01:52:01;;;;;;;7.50;2.55;;;;;;;;;;5023101;28;20024;-69
2023/11/10 01:54:34;;;;;;;5.65;2.83;;;;;;;;;;5033180;28;20490;-68
2023/11/10 01:57:03;;;;;;;9.30;2.55;;;;;;;;;;5039833;28;20036;-66
2023/11/10 01:59:30;;;;;;;6.65;2.45;;;;;;;;;;5040954;28;20389;-67
2023/11/10 02:01:59;;;;;;;7.10;2.47;;;;;;;;;;5016049;28;20037;-66
2023/11/10 02:04:27;;;;;;;3.05;2.33;;;;;;;;;;5040621;28;20025;-67
2023/11/10 02:06:53;;;;;;;7.15;2.60;;;;;;;;;;5039586;28;20029;-68
2023/11/10 02:09:20;;;;;;;6.70;3.22;;;;;;;;;;5040553;28;20032;-66
2023/11/10 02:11:46;;;;;;;10.05;3.33;;;;;;;;;;5034319;28;20047;-70
2023/11/10 02:14:13;;;;;;;6.25;3.13;;;;;;;;;;5034399;28;20037;-62
2023/11/10 02:16:40;;;;;;;7.95;2.78;;;;;;;;;;5037260;28;20115;-60
2023/11/10 02:19:15;;;;;;;10.18;2.65;;;;;;;;;;5039313;28;20029;-61
2023/11/10 02:21:42;;;;;;;5.72;2.40;;;;;;;;;;5023326;28;20036;-61
2023/11/10 02:24:08;;;;;;;8.90;2.60;;;;;;;;;;5034649;28;20565;-60
2023/11/10 02:26:35;;;;;;;5.25;2.22;;;;;;;;;;5034574;28;20028;-61
2023/11/10 02:29:01;;;;;;;8.27;2.65;;;;;;;;;;5038493;28;20078;-62
2023/11/10 02:31:27;;;;;;;10.05;2.58;;;;;;;;;;5034002;28;20095;-62
2023/11/10 02:33:55;;;;;;;4.38;2.45;;;;;;;;;;5034427;28;20049;-61
2023/11/10 02:36:21;;;;;;;6.50;2.45;;;;;;;;;;5034212;28;20025;-61
2023/11/10 02:38:47;;;;;;;6.38;2.75;;;;;;;;;;5039098;28;20033;-62
2023/11/10 02:41:13;;;;;;;4.93;2.60;;;;;;;;;;5036193;28;20032;-62
2023/11/10 02:43:40;;;;;;;4.03;2.58;;;;;;;;;;5039100;28;20028;-61
2023/11/10 02:46:06;;;;;;;9.50;3.30;;;;;;;;;;5042115;28;20450;-61
2023/11/10 02:48:32;;;;;;;4.20;2.55;;;;;;;;;;5035727;28;20020;-61
2023/11/10 02:50:59;;;;;;;7.47;2.65;;;;;;;;;;5033180;28;20029;-61
2023/11/10 02:53:25;;;;;;;8.52;2.83;;;;;;;;;;5036849;28;20022;-61
2023/11/10 02:55:51;;;;;;;6.70;2.67;;;;;;;;;;5017978;28;20083;-61
2023/11/10 02:58:17;;;;;;;3.33;2.40;;;;;;;;;;5035827;28;20029;-60
2023/11/10 03:00:44;;;;;;;4.30;2.33;;;;;;;;;;5038922;28;20022;-60
2023/11/10 03:03:11;;;;;;;3.40;2.33;;;;;;;;;;5035263;28;20424;-61
2023/11/10 03:05:37;;;;;;;5.55;2.55;;;;;;;;;;5027363;28;20041;-60
2023/11/10 03:08:05;;;;;;;3.33;2.60;;;;;;;;;;5015239;28;20033;-60
2023/11/10 03:10:31;;;;;;;4.07;2.35;;;;;;;;;;5034592;28;20017;-61
2023/11/10 03:12:57;;;;;;;5.38;2.60;;;;;;;;;;5020714;28;20128;-61
2023/11/10 03:15:23;;;;;;;7.45;2.88;;;;;;;;;;5031171;28;20457;-61
2023/11/10 03:17:49;;;;;;;5.30;2.20;;;;;;;;;;5014177;28;20056;-61
2023/11/10 03:20:16;;;;;;;4.82;2.00;;;;;;;;;;5032226;28;20033;-64
2023/11/10 03:22:42;;;;;;;4.82;2.10;;;;;;;;;;5030476;28;20041;-62
2023/11/10 03:25:09;;;;;;;5.68;2.42;;;;;;;;;;5035940;28;20084;-61
2023/11/10 03:27:36;;;;;;;5.05;2.30;;;;;;;;;;5035681;28;20610;-61
2023/11/10 03:30:03;;;;;;;5.03;2.45;;;;;;;;;;5028990;28;20174;-62
2023/11/10 03:32:29;;;;;;;6.28;2.53;;;;;;;;;;5020561;28;20030;-61
2023/11/10 03:34:55;;;;;;;4.97;2.03;;;;;;;;;;5017424;28;20058;-61
2023/11/10 03:37:21;;;;;;;3.67;2.20;;;;;;;;;;5033822;28;20049;-60
2023/11/10 03:39:48;;;;;;;4.88;2.67;;;;;;;;;;5037346;28;20029;-60
2023/11/10 03:42:14;;;;;;;11.07;2.72;;;;;;;;;;5015618;28;20026;-61
2023/11/10 03:44:40;;;;;;;4.32;2.33;;;;;;;;;;5033806;28;20138;-61
2023/11/10 03:47:06;;;;;;;6.20;2.47;;;;;;;;;;5032633;28;20813;-60
2023/11/10 03:49:34;;;;;;;4.72;2.80;;;;;;;;;;5032086;28;20021;-62
2023/11/10 03:52:00;;;;;;;5.28;2.50;;;;;;;;;;5035400;28;20020;-60
2023/11/10 03:54:26;;;;;;;5.03;2.40;;;;;;;;;;5036917;28;20029;-61
2023/11/10 03:56:52;;;;;;;3.80;3.00;;;;;;;;;;5044053;28;20025;-66
2023/11/10 03:59:18;;;;;;;3.80;2.22;;;;;;;;;;5034719;28;20222;-62
2023/11/10 04:01:45;;;;;;;5.15;2.67;;;;;;;;;;5035452;28;20025;-61
2023/11/10 04:04:11;;;;;;;6.07;2.83;;;;;;;;;;5036367;28;20407;-62
2023/11/10 04:06:38;;;;;;;3.65;2.17;;;;;;;;;;5037971;28;20021;-60
2023/11/10 04:09:04;;;;;;;6.13;2.67;;;;;;;;;;5035209;28;20112;-62
2023/11/10 04:11:30;;;;;;;4.25;2.53;;;;;;;;;;5036124;28;20040;-62
2023/11/10 04:13:57;;;;;;;4.03;2.80;;;;;;;;;;5038224;28;20025;-62
2023/11/10 04:16:24;;;;;;;5.25;2.90;;;;;;;;;;5035827;28;20095;-61
2023/11/10 04:18:51;;;;;;;7.30;2.97;;;;;;;;;;5029584;28;20029;-61
2023/11/10 04:21:18;;;;;;;7.82;3.70;;;;;;;;;;5034397;28;20845;-61
2023/11/10 04:23:44;;;;;;;5.07;3.45;;;;;;;;;;5033960;28;20585;-64
2023/11/10 04:26:11;;;;;;;4.30;3.10;;;;;;;;;;5034478;28;20036;-61
2023/11/10 04:28:40;;;;;;;4.88;2.97;;;;;;;;;;5037447;28;20063;-61
2023/11/10 04:31:09;;;;;;;4.75;3.55;;;;;;;;;;5035855;28;20040;-61
2023/11/10 04:33:39;;;;;;;6.72;3.70;;;;;;;;;;5032087;28;20026;-61
2023/11/10 04:36:06;;;;;;;7.20;4.07;;;;;;;;;;5033782;28;20036;-61
2023/11/10 04:38:32;;;;;;;5.95;3.35;;;;;;;;;;5036859;28;20461;-61
2023/11/10 04:40:59;;;;;;;5.30;3.30;;;;;;;;;;5033311;28;20538;-60
2023/11/10 04:43:26;;;;;;;7.30;4.47;;;;;;;;;;5035105;28;20494;-60
2023/11/10 04:45:52;;;;;;;6.22;3.25;;;;;;;;;;5034804;28;20459;-60
2023/11/10 04:48:18;;;;;;;6.53;3.95;;;;;;;;;;5031667;28;20024;-61
2023/11/10 04:50:44;;;;;;;7.50;4.68;;;;;;;;;;5032703;28;20592;-61
2023/11/10 04:53:13;;;;;;;8.32;4.13;;;;;;;;;;5027111;28;20537;-61
2023/11/10 04:55:39;;;;;;;8.80;4.20;;;;;;;;;;5028922;28;20029;-61
2023/11/10 04:58:06;;;;;;;8.98;3.90;;;;;;;;;;5036323;28;20063;-61
2023/11/10 05:00:33;;;;;;;9.85;4.15;;;;;;;;;;5037135;28;20047;-61
2023/11/10 05:03:02;;;;;;;6.07;4.03;;;;;;;;;;5029234;28;20266;-60
2023/11/10 05:05:29;;;;;;;6.45;4.25;;;;;;;;;;5035290;28;20051;-62
2023/11/10 05:07:55;;;;;;;6.47;4.30;;;;;;;;;;5035727;28;20501;-60
2023/11/10 05:10:21;;;;;;;9.15;4.30;;;;;;;;;;5039853;28;20021;-60
2023/11/10 05:12:48;;;;;;;7.28;4.40;;;;;;;;;;5040749;28;20327;-66
2023/11/10 05:15:14;;;;;;;10.13;4.57;;;;;;;;;;5035343;28;20025;-61
2023/11/10 05:17:43;;;;;;;8.85;4.45;;;;;;;;;;5033225;28;20091;-60
2023/11/10 05:20:09;;;;;;;10.25;4.10;;;;;;;;;;5035488;28;20029;-60
2023/11/10 05:22:36;;;;;;;4.70;4.07;;;;;;;;;;5032738;28;20575;-60
2023/11/10 05:25:03;;;;;;;8.70;4.75;;;;;;;;;;5036718;28;20033;-60
2023/11/10 05:27:29;;;;;;;10.50;5.28;;;;;;;;;;5023115;28;20489;-62
2023/11/10 05:29:55;;;;;;;8.05;4.50;;;;;;;;;;5016618;28;20079;-60
2023/11/10 05:32:21;;;;;;;9.68;4.72;;;;;;;;;;5018217;28;20029;-61
2023/11/10 05:34:50;;;;;;;7.97;5.55;;;;;;;;;;5039474;28;20043;-61
2023/11/10 05:37:18;;;;;;;9.18;4.57;;;;;;;;;;5038559;28;20380;-64
2023/11/10 05:39:45;;;;;;;7.53;4.65;;;;;;;;;;5027326;28;20036;-64
2023/11/10 05:42:13;;;;;;;6.38;4.82;;;;;;;;;;5024471;28;20511;-61
2023/11/10 05:44:39;;;;;;;6.32;4.30;;;;;;;;;;5043865;28;20517;-61
2023/11/10 05:47:05;;;;;;;8.48;4.78;;;;;;;;;;5037362;28;20025;-60
2023/11/10 05:49:31;;;;;;;8.52;4.97;;;;;;;;;;5036914;28;20090;-60
2023/11/10 05:51:58;;;;;;;9.93;5.05;;;;;;;;;;5037979;28;20388;-60
2023/11/10 05:54:24;;;;;;;7.00;4.82;;;;;;;;;;5021105;28;20048;-61
2023/11/10 05:56:50;;;;;;;10.20;4.90;;;;;;;;;;5034616;28;20813;-61
2023/11/10 05:59:16;;;;;;;12.25;4.95;;;;;;;;;;5035520;28;20049;-61
2023/11/10 06:01:42;;;;;;;8.77;4.53;;;;;;;;;;5035287;28;20048;-63
2023/11/10 06:04:08;;;;;;;6.80;4.43;;;;;;;;;;5034747;28;20435;-61
2023/11/10 06:06:36;;;;;;;13.23;4.80;;;;;;;;;;5039324;28;20030;-61
2023/11/10 06:09:02;;;;;;;10.63;4.47;;;;;;;;;;5025430;28;20093;-61
2023/11/10 06:11:28;;;;;;;10.50;5.43;;;;;;;;;;5035915;28;20030;-61
2023/11/10 06:13:56;;;;;;;10.50;5.47;;;;;;;;;;5039773;28;20036;-61
2023/11/10 06:16:23;;;;;;;12.95;5.13;;;;;;;;;;5037996;28;20044;-61
2023/11/10 06:18:49;;;;;;;10.85;5.65;;;;;;;;;;5035432;28;20037;-65
2023/11/10 06:21:15;;;;;;;7.15;5.03;;;;;;;;;;5022582;28;20036;-61
2023/11/10 06:23:41;;;;;;;14.65;6.30;;;;;;;;;;5030652;28;20040;-63
2023/11/10 06:26:07;;;;;;;11.30;5.50;;;;;;;;;;5032981;28;20959;-64
2023/11/10 06:28:37;;;;;;;9.57;5.90;;;;;;;;;;5036361;28;20021;-61
2023/11/10 06:31:04;;;;;;;16.85;6.70;;;;;;;;;;5032034;28;20175;-60
2023/11/10 06:33:30;;;;;;;15.23;6.57;;;;;;;;;;5033909;28;20101;-62
2023/11/10 06:35:57;;;;;;;11.63;6.85;;;;;;;;;;5013308;28;20033;-67
2023/11/10 06:38:23;;;;;;;11.60;5.32;;;;;;;;;;5035920;28;20044;-61
2023/11/10 06:40:55;;;;;;;10.18;5.88;;;;;;;;;;5038876;28;20060;-62
2023/11/10 06:43:21;;;;;;;9.73;5.47;;;;;;;;;;5036570;28;20091;-60
2023/11/10 06:45:48;;;;;;;10.52;6.32;;;;;;;;;;5034680;28;20029;-62
2023/11/10 06:48:15;;;;;;;10.90;6.05;;;;;;;;;;5037128;28;20467;-66
2023/11/10 06:50:41;;;;;;;13.02;7.28;;;;;;;;;;5035745;28;20793;-62
2023/11/10 06:53:10;;;;;;;10.90;6.00;;;;;;;;;;5016315;28;20171;-62
2023/11/10 06:55:36;;;;;;;12.93;5.68;;;;;;;;;;5033149;28;20033;-61
2023/11/10 06:58:02;;;;;;;11.63;5.07;;;;;;;;;;5035480;28;20032;-61
2023/11/10 07:00:29;;;;;;;9.60;5.38;;;;;;;;;;5036334;28;20528;-61
2023/11/10 07:02:56;;;;;;;13.07;5.90;;;;;;;;;;5029548;28;20044;-60
2023/11/10 07:05:25;;;;;;;10.98;6.22;;;;;;;;;;5033005;28;21188;-61
2023/11/10 07:07:52;;;;;;;11.40;5.70;;;;;;;;;;5036651;28;20035;-61
2023/11/10 07:10:18;;;;;;;9.80;5.25;;;;;;;;;;5035144;28;20033;-60
2023/11/10 07:12:44;;;;;;;10.40;4.97;;;;;;;;;;5034649;28;20490;-61
2023/11/10 07:15:10;;;;;;;9.93;5.03;;;;;;;;;;5015385;28;20162;-62
2023/11/10 07:17:37;;;;;;;10.20;5.45;;;;;;;;;;5020886;28;20087;-61
2023/11/10 07:20:07;;;;;;;10.13;4.95;;;;;;;;;;5033882;28;20044;-64
2023/11/10 07:22:33;;;;;;;8.98;5.03;;;;;;;;;;5037074;28;20440;-66
2023/11/10 07:25:00;;;;;;;9.52;5.47;;;;;;;;;;5032538;28;20037;-62
2023/11/10 07:27:28;;;;;;;13.25;5.03;;;;;;;;;;5019948;28;20039;-61
2023/11/10 07:29:54;;;;;;;17.70;5.95;;;;;;;;;;5045051;28;20079;-62
2023/11/10 07:32:20;;;;;;;10.68;4.93;;;;;;;;;;5037192;28;20445;-62
2023/11/10 07:34:48;;;;;;;10.57;4.50;;;;;;;;;;5017867;28;20024;-61
2023/11/10 07:37:14;;;;;;;10.82;4.65;;;;;;;;;;5034073;28;20036;-62
2023/11/10 07:39:43;;;;;;;10.15;5.00;;;;;;;;;;5037162;28;20196;-62
2023/11/10 07:42:09;;;;;;;10.45;4.72;;;;;;;;;;5033609;28;20028;-61
2023/11/10 07:44:35;;;;;;;8.00;4.32;;;;;;;;;;5035534;28;20517;-61
2023/11/10 07:47:01;;;;;;;8.18;4.53;;;;;;;;;;5034835;28;20033;-61
2023/11/10 07:49:30;;;;;;;6.97;4.10;;;;;;;;;;5033660;28;20048;-63
2023/11/10 07:51:57;;;;;;;9.82;4.18;;;;;;;;;;5032465;28;20056;-61
2023/11/10 07:54:23;;;;;;;4.10;3.70;;;;;;;;;;5021054;28;20165;-61
2023/11/10 07:56:50;;;;;;;7.75;4.72;;;;;;;;;;5042181;28;20036;-61
2023/11/10 07:59:17;;;;;;;6.20;4.28;;;;;;;;;;5032233;28;20025;-61
2023/11/10 08:01:43;;;;;;;7.72;4.90;;;;;;;;;;5038423;28;20029;-61
2023/11/10 08:04:12;;;;;;;5.70;4.30;;;;;;;;;;5035443;28;20048;-62
2023/11/10 08:06:38;;;;;;;7.32;4.70;;;;;;;;;;5022345;28;20025;-61
2023/11/10 08:09:05;;;;;;;8.77;4.63;;;;;;;;;;5039726;28;20136;-61
2023/11/10 08:11:31;;;;;;;8.90;4.45;;;;;;;;;;5031518;28;20346;-61
2023/11/10 08:13:58;;;;;;;6.80;4.68;;;;;;;;;;5031924;28;20418;-60
2023/11/10 08:16:24;;;;;;;8.57;4.55;;;;;;;;;;4993408;28;20144;-61
2023/11/10 08:18:51;;;;;;;7.32;4.97;;;;;;;;;;5025628;28;20037;-61
2023/11/10 08:21:17;;;;;;;9.32;6.03;;;;;;;;;;5037095;28;20033;-62
2023/11/10 08:23:44;;;;;;;9.32;4.95;;;;;;;;;;5028686;28;20127;-61
2023/11/10 08:26:10;;;;;;;10.38;4.88;;;;;;;;;;5014844;28;20140;-62
2023/11/10 08:28:36;;;;;;;7.72;4.80;;;;;;;;;;5034166;28;20469;-60
2023/11/10 08:31:02;;;;;;;8.88;4.60;;;;;;;;;;5028874;28;20026;-60
2023/11/10 08:33:29;;;;;;;8.75;5.20;;;;;;;;;;5037051;28;20033;-59
2023/11/10 08:35:55;;;;;;;9.00;4.85;;;;;;;;;;5033768;28;20033;-60
2023/11/10 08:38:21;;;;;;;7.25;4.68;;;;;;;;;;5033550;28;20429;-62
2023/11/10 08:40:48;;;;;;;10.65;6.25;;;;;;;;;;5031925;28;20060;-61
2023/11/10 08:43:15;;;;;;;9.60;5.57;;;;;;;;;;5030254;28;20036;-61
2023/11/10 08:45:41;;;;;;;8.32;5.53;;;;;;;;;;5033981;28;20029;-61
2023/11/10 08:48:07;;;;;;;12.32;6.13;;;;;;;;;;5039545;28;20472;-61
2023/11/10 08:50:38;;;;;;;12.25;6.80;;;;;;;;;;5036776;28;20021;-62
2023/11/10 08:53:06;;;;;;;9.73;5.78;;;;;;;;;;5035337;28;20052;-60
2023/11/10 08:55:32;;;;;;;9.25;5.30;;;;;;;;;;5017731;28;20037;-61
2023/11/10 08:57:58;;;;;;;7.53;5.25;;;;;;;;;;5038421;28;20036;-62
2023/11/10 09:00:26;;;;;;;9.88;5.57;;;;;;;;;;5015130;28;20490;-61
2023/11/10 09:02:55;;;;;;;9.07;5.80;;;;;;;;;;5032393;28;20532;-62
2023/11/10 09:05:22;;;;;;;7.50;5.60;;;;;;;;;;5033526;28;20033;-62
2023/11/10 09:07:48;;;;;;;8.48;4.63;;;;;;;;;;5030828;28;20608;-60
2023/11/10 09:10:15;;;;;;;8.52;5.30;;;;;;;;;;5035769;28;20104;-61
2023/11/10 09:12:45;;;;;;;7.35;4.05;;;;;;;;;;5034411;28;20741;-61
2023/11/10 09:15:11;;;;;;;6.80;3.58;;;;;;;;;;5037458;28;20032;-61
2023/11/10 09:17:38;;;;;;;8.93;3.97;;;;;;;;;;5031601;28;20025;-61
2023/11/10 09:20:06;;;;;;;6.90;4.22;;;;;;;;;;5032887;28;20060;-61
2023/11/10 09:22:35;;;;;;;7.38;3.78;;;;;;;;;;5034548;28;20467;-61
2023/11/10 09:25:02;;;;;;;8.25;3.67;;;;;;;;;;5034134;28;20337;-61
2023/11/10 09:27:28;;;;;;;5.20;3.70;;;;;;;;;;5035628;28;20029;-60
2023/11/10 09:29:54;;;;;;;5.20;3.55;;;;;;;;;;5039654;28;20028;-61
2023/11/10 09:32:21;;;;;;;5.05;3.22;;;;;;;;;;5037364;28;20025;-60
2023/11/10 09:34:47;;;;;;;7.70;3.63;;;;;;;;;;5039259;28;20552;-61
2023/11/10 09:37:15;;;;;;;6.47;3.40;;;;;;;;;;5036062;28;20029;-61
2023/11/10 09:39:42;;;;;;;6.22;2.97;;;;;;;;;;5038225;28;20425;-64
2023/11/10 09:42:09;;;;;;;7.18;3.33;;;;;;;;;;5034339;28;20037;-61
2023/11/10 09:44:45;;;;;;;4.70;2.75;;;;;;;;;;5037680;28;20090;-62
2023/11/10 09:47:12;;;;;;;3.67;2.90;;;;;;;;;;5035511;28;20036;-61
2023/11/10 09:49:39;;;;;;;4.93;2.33;;;;;;;;;;5037580;28;20391;-61
2023/11/10 09:52:05;;;;;;;5.10;2.33;;;;;;;;;;5009525;28;20114;-60
2023/11/10 09:54:35;;;;;;;4.53;3.03;;;;;;;;;;5032516;28;20037;-61
2023/11/10 09:57:02;;;;;;;4.75;2.70;;;;;;;;;;5035167;28;20029;-61
2023/11/10 09:59:31;;;;;;;4.97;2.40;;;;;;;;;;5035017;28;20407;-61
2023/11/10 10:02:00;;;;;;;3.72;2.45;;;;;;;;;;5037217;28;20166;-63
2023/11/10 10:04:27;;;;;;;3.17;2.45;;;;;;;;;;5031523;28;20041;-62
2023/11/10 10:06:56;;;;;;;4.70;2.70;;;;;;;;;;5037451;28;20572;-61
2023/11/10 10:09:26;;;;;;;4.47;2.67;;;;;;;;;;5018642;28;20574;-62
2023/11/10 10:11:54;;;;;;;2.63;2.20;;;;;;;;;;5040979;28;20446;-62
2023/11/10 10:14:20;;;;;;;4.53;2.58;;;;;;;;;;5040279;28;20120;-62
2023/11/10 10:16:56;;;;;;;4.63;2.80;;;;;;;;;;5038671;28;20064;-61
2023/11/10 10:19:23;;;;;;;3.45;2.42;;;;;;;;;;5038717;28;20194;-61
2023/11/10 10:21:49;;;;;;;2.38;2.17;;;;;;;;;;5041341;28;20095;-60
2023/11/10 10:24:16;;;;;;;4.30;2.22;;;;;;;;;;5041150;28;20183;-62
2023/11/10 10:26:42;;;;;;;2.63;2.08;;;;;;;;;;5045334;28;20025;-60
2023/11/10 10:29:08;;;;;;;3.67;2.25;;;;;;;;;;5034505;28;20124;-61
2023/11/10 10:31:34;;;;;;;4.45;2.50;;;;;;;;;;5034462;28;20718;-60
2023/11/10 10:34:04;;;;;;;3.83;2.15;;;;;;;;;;5035697;28;20048;-61
2023/11/10 10:36:31;;;;;;;3.70;2.17;;;;;;;;;;5035461;28;20032;-61
2023/11/10 10:38:58;;;;;;;4.15;2.47;;;;;;;;;;5018286;28;20029;-61
2023/11/10 10:41:26;;;;;;;3.50;2.60;;;;;;;;;;5036552;28;20103;-61
2023/11/10 10:43:53;;;;;;;2.30;2.08;;;;;;;;;;5028188;28;20075;-60
2023/11/10 10:46:19;;;;;;;3.15;2.50;;;;;;;;;;5032321;28;20467;-61
2023/11/10 10:48:49;;;;;;;3.22;2.20;;;;;;;;;;5023612;28;21534;-61
2023/11/10 10:51:19;;;;;;;5.75;2.45;;;;;;;;;;5036713;28;20063;-62
2023/11/10 10:53:46;;;;;;;5.05;2.50;;;;;;;;;;5030842;28;20473;-61
2023/11/10 10:56:14;;;;;;;8.68;2.72;;;;;;;;;;5035878;28;20048;-60
2023/11/10 10:58:41;;;;;;;7.80;2.55;;;;;;;;;;5036377;28;20032;-62
2023/11/10 11:01:11;;;;;;;6.47;2.35;;;;;;;;;;5037069;28;20034;-63
2023/11/10 11:03:56;;;;;;;2.67;2.40;;;;;;;;;;5032322;28;20049;-62
2023/11/10 11:06:22;;;;;;;4.97;2.17;;;;;;;;;;5013586;28;20180;-61
2023/11/10 11:08:49;;;;;;;4.90;2.33;;;;;;;;;;5014948;28;20276;-61
2023/11/10 11:11:35;;;;;;;6.85;2.65;;;;;;;;;;5030391;28;20136;-63
2023/11/10 11:14:01;;;;;;;;;;;;;;;;;;5018114;28;20017;-63
2023/11/10 11:16:28;;;;;;;3.55;2.33;;;;;;;;;;5015718;28;20386;-62
2023/11/10 11:18:54;;;;;;;2.78;1.90;;;;;;;;;;5015641;28;20029;-61
2023/11/10 11:21:21;;;;;;;4.70;2.55;;;;;;;;;;5015759;28;20033;-61
2023/11/10 11:23:51;;;;;;;6.05;2.28;;;;;;;;;;5014129;28;20039;-61
2023/11/10 11:26:17;;;;;;;2.22;1.80;;;;;;;;;;5014479;28;20061;-60
2023/11/10 11:28:43;;;;;;;6.18;2.15;;;;;;;;;;5013229;28;20048;-60
2023/11/10 11:31:10;;;;;;;5.45;2.20;;;;;;;;;;5012631;28;20115;-60
2023/11/10 11:33:46;;;;;;;4.63;1.90;;;;;;;;;;5016886;28;20544;-60
2023/11/10 11:36:16;;;;;;;3.97;1.83;;;;;;;;;;5008238;28;20033;-60
2023/11/10 11:38:42;;;;;;;4.63;2.25;;;;;;;;;;5016166;28;20344;-60
2023/11/10 11:41:11;;;;;;;6.80;2.03;;;;;;;;;;5013494;28;20037;-61
2023/11/10 11:43:48;;;;;;;8.40;1.90;;;;;;;;;;5016598;28;20041;-59
2023/11/10 11:46:14;;;;;;;2.67;2.03;;;;;;;;;;5012466;28;20613;-62
2023/11/10 11:48:40;;;;;;;4.38;2.00;;;;;;;;;;5012176;28;20037;-60
2023/11/10 11:51:07;;;;;;;4.20;2.17;;;;;;;;;;5012720;28;20029;-61
2023/11/10 11:53:37;;;;;;;2.50;2.13;;;;;;;;;;5030541;28;20030;-60
2023/11/10 11:56:03;;;;;;;4.30;2.10;;;;;;;;;;5012615;28;20581;-61
2023/11/10 11:58:29;;;;;;;3.33;2.10;;;;;;;;;;5008743;28;20541;-60
2023/11/10 12:00:57;;;;;;;3.78;2.78;;;;;;;;;;5009800;28;20033;-60
2023/11/10 12:03:26;;;;;;;5.28;2.72;;;;;;;;;;5026187;28;20059;-60
2023/11/10 12:05:53;;;;;;;11.43;6.57;;;;;;;;;;5028462;28;20039;-61
2023/11/10 12:08:21;;;;;;;6.47;3.92;;;;;;;;;;5032139;28;20037;-61
2023/11/10 12:10:48;;;;;;;3.83;2.65;;;;;;;;;;5031473;28;20021;-61
2023/11/10 12:13:15;;;;;;;3.05;2.72;;;;;;;;;;5034667;28;20026;-61
2023/11/10 12:15:41;;;;;;;3.95;2.83;;;;;;;;;;5035708;28;20028;-62
2023/11/10 12:18:08;;;;;;;6.07;4.43;;;;;;;;;;5037460;28;20099;-62
2023/11/10 12:20:35;;;;;;;9.20;4.43;;;;;;;;;;5037443;28;20522;-61
2023/11/10 12:23:04;;;;;;;8.40;5.50;;;;;;;;;;5038384;28;20489;-61
2023/11/10 12:25:35;;;;;;;5.93;3.28;;;;;;;;;;5015402;28;20103;-61
2023/11/10 12:28:01;;;;;;;3.97;3.08;;;;;;;;;;5038063;28;20032;-61
2023/11/10 12:30:28;;;;;;;5.18;3.40;;;;;;;;;;5035073;28;20430;-61
2023/11/10 12:32:54;;;;;;;3.38;2.65;;;;;;;;;;5013103;28;20486;-61
2023/11/10 12:35:21;;;;;;;2.83;2.40;;;;;;;;;;5016115;28;20087;-60
2023/11/10 12:37:47;;;;;;;6.75;2.83;;;;;;;;;;5034067;28;20523;-62
2023/11/10 12:40:17;;;;;;;4.03;2.45;;;;;;;;;;5036810;28;20079;-60
2023/11/10 12:42:43;;;;;;;2.15;1.95;;;;;;;;;;5015735;28;20045;-61
2023/11/10 12:45:13;;;;;;;2.95;2.20;;;;;;;;;;5037371;28;20494;-61
2023/11/10 12:47:44;;;;;;;2.53;1.85;;;;;;;;;;5037960;28;20516;-60
2023/11/10 12:50:10;;;;;;;3.17;1.88;;;;;;;;;;5035672;28;20036;-60
2023/11/10 12:52:37;;;;;;;2.97;1.90;;;;;;;;;;5036470;28;20024;-62
2023/11/10 12:55:03;;;;;;;2.78;2.58;;;;;;;;;;5031970;28;20037;-61
2023/11/10 12:57:29;;;;;;;2.85;1.90;;;;;;;;;;5013290;28;20037;-61
2023/11/10 12:59:57;;;;;;;2.40;1.77;;;;;;;;;;5019857;28;20026;-61
2023/11/10 13:02:23;;;;;;;3.17;2.47;;;;;;;;;;5033732;28;20096;-61
2023/11/10 13:04:50;;;;;;;1.73;1.60;;;;;;;;;;5034665;28;20055;-64
2023/11/10 13:07:16;;;;;;;3.42;2.45;;;;;;;;;;5020607;28;20029;-62
2023/11/10 13:09:42;;;;;;;2.28;1.77;;;;;;;;;;5036798;28;20032;-62
2023/11/10 13:12:11;;;;;;;2.13;1.77;;;;;;;;;;5020739;28;20053;-63
2023/11/10 13:14:37;;;;;;;3.25;2.00;;;;;;;;;;5035614;28;20494;-63
2023/11/10 13:17:04;;;;;;;2.90;1.60;;;;;;;;;;5036807;28;20036;-62
2023/11/10 13:19:30;;;;;;;1.83;1.55;;;;;;;;;;5015732;28;20031;-62
2023/11/10 13:21:56;;;;;;;4.05;1.88;;;;;;;;;;5034426;28;20033;-62
2023/11/10 13:24:22;;;;;;;2.63;1.70;;;;;;;;;;5035736;28;20033;-62
2023/11/10 13:26:48;;;;;;;2.75;1.70;;;;;;;;;;5038167;28;20570;-62
2023/11/10 13:29:15;;;;;;;2.38;1.73;;;;;;;;;;5014916;28;20024;-62
2023/11/10 13:31:43;;;;;;;2.30;1.65;;;;;;;;;;5018814;28;20040;-61
2023/11/10 13:34:14;;;;;;;1.67;1.50;;;;;;;;;;5036397;28;20365;-64
2023/11/10 13:36:41;;;;;;;2.63;2.20;;;;;;;;;;5039142;28;20632;-61
2023/11/10 13:39:07;;;;;;;4.93;2.75;;;;;;;;;;5036550;28;20220;-61
2023/11/10 13:41:34;;;;;;;7.00;2.28;;;;;;;;;;5039147;28;20021;-61
2023/11/10 13:44:00;;;;;;;5.72;2.22;;;;;;;;;;5034060;28;20035;-60
2023/11/10 13:46:26;;;;;;;3.95;2.17;;;;;;;;;;5036270;28;20032;-61
2023/11/10 13:48:55;;;;;;;5.50;2.63;;;;;;;;;;5038600;28;20028;-62
2023/11/10 13:51:21;;;;;;;4.47;2.47;;;;;;;;;;5018844;28;20056;-62
2023/11/10 13:53:47;;;;;;;7.13;2.45;;;;;;;;;;5019427;28;20025;-63
2023/11/10 13:56:14;;;;;;;6.07;2.95;;;;;;;;;;5038947;28;20037;-62
2023/11/10 13:58:40;;;;;;;5.88;3.05;;;;;;;;;;5039912;28;20017;-62
2023/11/10 14:01:08;;;;;;;3.33;2.30;;;;;;;;;;5036252;28;20034;-62
2023/11/10 14:03:35;;;;;;;5.03;2.60;;;;;;;;;;5036382;28;20088;-66
2023/11/10 14:06:02;;;;;;;4.88;2.25;;;;;;;;;;5038658;28;20366;-62
2023/11/10 14:08:28;;;;;;;9.75;2.75;;;;;;;;;;5035957;28;20059;-61
2023/11/10 14:10:54;;;;;;;4.22;2.13;;;;;;;;;;5018346;28;20097;-61
2023/11/10 14:13:20;;;;;;;10.00;3.08;;;;;;;;;;5034985;28;20533;-61
2023/11/10 14:15:47;;;;;;;3.40;2.05;;;;;;;;;;5035446;28;20996;-61
2023/11/10 14:18:13;;;;;;;5.60;2.00;;;;;;;;;;5037218;28;20047;-61
2023/11/10 14:20:43;;;;;;;2.60;1.80;;;;;;;;;;5033377;28;20034;-61
2023/11/10 14:23:13;;;;;;;4.05;1.80;;;;;;;;;;5025196;28;20487;-61
2023/11/10 14:25:42;;;;;;;3.03;2.08;;;;;;;;;;5025206;28;20029;-63
2023/11/10 14:28:09;;;;;;;5.07;2.10;;;;;;;;;;5028390;28;20029;-61
2023/11/10 14:30:36;;;;;;;4.13;2.30;;;;;;;;;;5008811;28;20029;-63
2023/11/10 14:33:05;;;;;;;3.65;2.13;;;;;;;;;;5027949;28;20397;-60
2023/11/10 14:35:31;;;;;;;4.53;2.50;;;;;;;;;;5013086;28;20120;-64
2023/11/10 14:37:58;;;;;;;2.03;1.60;;;;;;;;;;5030536;28;20029;-60
2023/11/10 14:40:33;;;;;;;2.88;2.10;;;;;;;;;;5031236;28;20040;-61